Aeroporto :
LOGIN :

Iscrizione | Disclaimer

   EN    FR    IT 

 










Sommario :    VFR   VFR Marginale   IFR   IFR Intensivo   IFR Molto Intensivo
Visibilità : 
Base nubi : 
>= 8 km
>= 3000ft
5 / 8 km
1000 / 3000 ft
1500m / 5 km
500 / 1000 ft
800 / 1500m
200 / 500 ft
< 800m
< 200 ft
Simboli :   Temporali  Nebbia  Neve Forte  Precipitazioni Forti  Vento > 20 kt
SIGMETs :   Varie  Temporali  Ghiacco  Turbolenza  Onda orograficha  Ceneri Vulcaniche






- Altitudine del aeroporto : 280 ft
- Codice IATA : FAE


EKVG - Vagar

ULTIMO METAR :
  • 260950Z AUTO 28006KT 250V020 9999 BKN026/// 03/M01 Q0988

METARs OBSOLETI :
  • 260920Z AUTO 29002KT 9999 FEW023/// BKN038/// 02/M01 Q0988
  • 260850Z AUTO 00000KT 9999 -RA FEW042/// SCT100/// 01/M01 Q0988
  • 260820Z AUTO 35003KT 9999 SCT025/// SCT071/// BKN110/// 02/M01 Q0988
  • 260750Z AUTO 19001KT 9999 SCT025/// BKN190/// 01/M01 Q0988
  • 260720Z AUTO 25002KT 9999 FEW200/// 01/M02 Q0988

TAF TAF EKVG
Valido dal 26 a 09 ore il 26 a 18 ore UTC


260829Z 2609/2618 20010KT 9999 FEW015 BKN030
TEMPO 2609/2618 4000 SHRASN BKN010CB



MetMap, La meteo Aeronautica in un colpo d'occhio ! - Copyright ORBIFLY Dicembre 2007 - Disclaimer

ORBIFLY MET'MAP TEAM :

Programmazione e sviluppo : Alexandra Zaïnal
Concezione : Baudouin d'Aumeries
Aiuto per la programmazione : Marc-Olivier Méhu
Supporto tecnico e logistico : Manuel Goepfert
Aiuto per la traduzione : Arnaldo La Scala

Contatto : metmap@orbifly.com




FONTI E CREDITI :

   NOAA